sensor_id;sensor_type;location;lat;lon;timestamp;P1;durP1;ratioP1;P2;durP2;ratioP2
62582;SDS011;48641;51.676;5.808;2022-09-09T00:04:28;0.77;;;0.38;;
62582;SDS011;48641;51.676;5.808;2022-09-09T00:12:24;1.13;;;0.50;;
62582;SDS011;48641;51.676;5.808;2022-09-09T00:23:39;0.40;;;0.40;;
62582;SDS011;48641;51.676;5.808;2022-09-09T00:26:10;1.40;;;0.40;;
62582;SDS011;48641;51.676;5.808;2022-09-09T00:28:52;1.40;;;0.43;;
62582;SDS011;48641;51.676;5.808;2022-09-09T00:31:26;1.17;;;0.40;;
62582;SDS011;48641;51.676;5.808;2022-09-09T00:33:53;1.05;;;0.43;;
62582;SDS011;48641;51.676;5.808;2022-09-09T00:36:23;1.00;;;0.50;;
62582;SDS011;48641;51.676;5.808;2022-09-09T00:38:57;1.50;;;0.50;;
62582;SDS011;48641;51.676;5.808;2022-09-09T00:42:13;1.15;;;0.47;;
62582;SDS011;48641;51.676;5.808;2022-09-09T00:44:32;1.52;;;0.40;;
62582;SDS011;48641;51.676;5.808;2022-09-09T00:55:28;0.30;;;0.30;;
62582;SDS011;48641;51.676;5.808;2022-09-09T00:58:07;0.93;;;0.50;;
62582;SDS011;48641;51.676;5.808;2022-09-09T01:00:35;2.78;;;0.73;;
62582;SDS011;48641;51.676;5.808;2022-09-09T01:10:58;1.05;;;0.50;;
62582;SDS011;48641;51.676;5.808;2022-09-09T01:13:26;1.20;;;0.40;;
62582;SDS011;48641;51.676;5.808;2022-09-09T01:15:59;0.68;;;0.40;;
62582;SDS011;48641;51.676;5.808;2022-09-09T01:18:34;0.50;;;0.40;;
62582;SDS011;48641;51.676;5.808;2022-09-09T01:21:16;0.85;;;0.50;;
62582;SDS011;48641;51.676;5.808;2022-09-09T01:29:07;0.40;;;0.40;;
62582;SDS011;48641;51.676;5.808;2022-09-09T01:31:39;1.63;;;0.40;;
62582;SDS011;48641;51.676;5.808;2022-09-09T01:34:20;1.58;;;0.38;;
62582;SDS011;48641;51.676;5.808;2022-09-09T01:39:31;1.45;;;0.30;;
62582;SDS011;48641;51.676;5.808;2022-09-09T01:41:58;0.65;;;0.40;;
62582;SDS011;48641;51.676;5.808;2022-09-09T01:44:24;1.38;;;0.40;;
62582;SDS011;48641;51.676;5.808;2022-09-09T01:46:51;1.67;;;0.40;;
62582;SDS011;48641;51.676;5.808;2022-09-09T01:49:17;0.63;;;0.40;;
62582;SDS011;48641;51.676;5.808;2022-09-09T01:51:43;1.20;;;0.50;;
62582;SDS011;48641;51.676;5.808;2022-09-09T01:54:12;0.75;;;0.30;;
62582;SDS011;48641;51.676;5.808;2022-09-09T02:02:30;0.50;;;0.20;;
62582;SDS011;48641;51.676;5.808;2022-09-09T02:07:47;1.20;;;0.40;;
62582;SDS011;48641;51.676;5.808;2022-09-09T02:10:18;1.13;;;0.32;;
62582;SDS011;48641;51.676;5.808;2022-09-09T02:12:57;1.30;;;0.40;;
62582;SDS011;48641;51.676;5.808;2022-09-09T02:15:33;1.10;;;0.30;;
62582;SDS011;48641;51.676;5.808;2022-09-09T02:18:12;1.00;;;0.30;;
62582;SDS011;48641;51.676;5.808;2022-09-09T02:20:41;1.30;;;0.40;;
62582;SDS011;48641;51.676;5.808;2022-09-09T02:23:09;0.85;;;0.40;;
62582;SDS011;48641;51.676;5.808;2022-09-09T02:25:37;1.13;;;0.30;;
62582;SDS011;48641;51.676;5.808;2022-09-09T02:28:06;1.00;;;0.20;;
62582;SDS011;48641;51.676;5.808;2022-09-09T02:30:34;0.20;;;0.20;;
62582;SDS011;48641;51.676;5.808;2022-09-09T02:33:03;0.40;;;0.20;;
62582;SDS011;48641;51.676;5.808;2022-09-09T02:35:31;1.05;;;0.30;;
62582;SDS011;48641;51.676;5.808;2022-09-09T02:37:59;0.63;;;0.40;;
62582;SDS011;48641;51.676;5.808;2022-09-09T02:40:28;0.70;;;0.30;;
62582;SDS011;48641;51.676;5.808;2022-09-09T02:42:55;0.80;;;0.40;;
62582;SDS011;48641;51.676;5.808;2022-09-09T02:45:22;0.85;;;0.38;;
62582;SDS011;48641;51.676;5.808;2022-09-09T02:50:26;0.47;;;0.32;;
62582;SDS011;48641;51.676;5.808;2022-09-09T02:55:35;1.38;;;0.40;;
62582;SDS011;48641;51.676;5.808;2022-09-09T02:58:05;0.90;;;0.40;;
62582;SDS011;48641;51.676;5.808;2022-09-09T03:00:35;1.88;;;0.50;;
62582;SDS011;48641;51.676;5.808;2022-09-09T03:03:05;1.38;;;0.50;;
62582;SDS011;48641;51.676;5.808;2022-09-09T03:05:33;1.08;;;0.30;;
62582;SDS011;48641;51.676;5.808;2022-09-09T03:07:59;2.20;;;0.50;;
62582;SDS011;48641;51.676;5.808;2022-09-09T03:10:25;0.70;;;0.20;;
62582;SDS011;48641;51.676;5.808;2022-09-09T03:12:50;1.10;;;0.45;;
62582;SDS011;48641;51.676;5.808;2022-09-09T03:15:16;1.92;;;0.40;;
62582;SDS011;48641;51.676;5.808;2022-09-09T03:17:42;0.68;;;0.40;;
62582;SDS011;48641;51.676;5.808;2022-09-09T03:20:07;0.47;;;0.35;;
62582;SDS011;48641;51.676;5.808;2022-09-09T03:22:34;0.55;;;0.30;;
62582;SDS011;48641;51.676;5.808;2022-09-09T03:24:59;0.93;;;0.40;;
62582;SDS011;48641;51.676;5.808;2022-09-09T03:27:25;1.25;;;0.40;;
62582;SDS011;48641;51.676;5.808;2022-09-09T03:29:51;1.13;;;0.40;;
62582;SDS011;48641;51.676;5.808;2022-09-09T03:32:17;0.43;;;0.40;;
62582;SDS011;48641;51.676;5.808;2022-09-09T03:34:43;0.57;;;0.30;;
62582;SDS011;48641;51.676;5.808;2022-09-09T03:37:09;1.00;;;0.50;;
62582;SDS011;48641;51.676;5.808;2022-09-09T03:39:35;0.28;;;0.28;;
62582;SDS011;48641;51.676;5.808;2022-09-09T03:42:01;0.50;;;0.30;;
62582;SDS011;48641;51.676;5.808;2022-09-09T03:44:31;0.65;;;0.40;;
62582;SDS011;48641;51.676;5.808;2022-09-09T03:46:56;1.88;;;0.40;;
62582;SDS011;48641;51.676;5.808;2022-09-09T03:49:24;0.33;;;0.20;;
62582;SDS011;48641;51.676;5.808;2022-09-09T03:51:51;1.95;;;0.52;;
62582;SDS011;48641;51.676;5.808;2022-09-09T03:54:16;0.32;;;0.30;;
62582;SDS011;48641;51.676;5.808;2022-09-09T03:56:42;1.58;;;0.50;;
62582;SDS011;48641;51.676;5.808;2022-09-09T03:59:07;0.20;;;0.20;;
62582;SDS011;48641;51.676;5.808;2022-09-09T04:01:34;0.28;;;0.28;;
62582;SDS011;48641;51.676;5.808;2022-09-09T04:03:59;1.13;;;0.30;;
62582;SDS011;48641;51.676;5.808;2022-09-09T04:06:27;0.43;;;0.20;;
62582;SDS011;48641;51.676;5.808;2022-09-09T04:08:53;0.43;;;0.28;;
62582;SDS011;48641;51.676;5.808;2022-09-09T04:11:20;0.77;;;0.30;;
62582;SDS011;48641;51.676;5.808;2022-09-09T04:13:46;1.40;;;0.40;;
62582;SDS011;48641;51.676;5.808;2022-09-09T04:16:11;1.60;;;0.50;;
62582;SDS011;48641;51.676;5.808;2022-09-09T04:18:40;0.70;;;0.32;;
62582;SDS011;48641;51.676;5.808;2022-09-09T04:21:06;0.70;;;0.40;;
62582;SDS011;48641;51.676;5.808;2022-09-09T04:23:33;0.68;;;0.30;;
62582;SDS011;48641;51.676;5.808;2022-09-09T04:25:59;1.52;;;0.43;;
62582;SDS011;48641;51.676;5.808;2022-09-09T04:28:30;0.80;;;0.30;;
62582;SDS011;48641;51.676;5.808;2022-09-09T04:31:03;0.60;;;0.30;;
62582;SDS011;48641;51.676;5.808;2022-09-09T04:33:29;0.45;;;0.30;;
62582;SDS011;48641;51.676;5.808;2022-09-09T04:35:56;0.90;;;0.30;;
62582;SDS011;48641;51.676;5.808;2022-09-09T04:38:22;0.77;;;0.30;;
62582;SDS011;48641;51.676;5.808;2022-09-09T04:40:48;2.03;;;0.40;;
62582;SDS011;48641;51.676;5.808;2022-09-09T04:43:16;0.38;;;0.30;;
62582;SDS011;48641;51.676;5.808;2022-09-09T04:45:43;0.65;;;0.30;;
62582;SDS011;48641;51.676;5.808;2022-09-09T04:48:11;1.45;;;0.38;;
62582;SDS011;48641;51.676;5.808;2022-09-09T04:50:37;1.02;;;0.40;;
62582;SDS011;48641;51.676;5.808;2022-09-09T04:53:03;0.73;;;0.30;;
62582;SDS011;48641;51.676;5.808;2022-09-09T04:55:29;2.78;;;0.70;;
62582;SDS011;48641;51.676;5.808;2022-09-09T04:57:56;2.17;;;0.57;;
62582;SDS011;48641;51.676;5.808;2022-09-09T05:00:22;1.38;;;0.50;;
62582;SDS011;48641;51.676;5.808;2022-09-09T05:02:48;1.20;;;0.52;;
62582;SDS011;48641;51.676;5.808;2022-09-09T05:05:14;1.60;;;0.50;;
62582;SDS011;48641;51.676;5.808;2022-09-09T05:07:40;2.85;;;0.57;;
62582;SDS011;48641;51.676;5.808;2022-09-09T05:10:06;1.75;;;0.60;;
62582;SDS011;48641;51.676;5.808;2022-09-09T05:12:32;0.75;;;0.50;;
62582;SDS011;48641;51.676;5.808;2022-09-09T05:14:58;2.42;;;0.70;;
62582;SDS011;48641;51.676;5.808;2022-09-09T05:17:23;2.17;;;0.70;;
62582;SDS011;48641;51.676;5.808;2022-09-09T05:19:49;2.67;;;0.70;;
62582;SDS011;48641;51.676;5.808;2022-09-09T05:22:20;4.38;;;0.85;;
62582;SDS011;48641;51.676;5.808;2022-09-09T05:24:48;3.10;;;0.80;;
62582;SDS011;48641;51.676;5.808;2022-09-09T05:27:15;2.20;;;0.80;;
62582;SDS011;48641;51.676;5.808;2022-09-09T05:29:47;4.25;;;0.88;;
62582;SDS011;48641;51.676;5.808;2022-09-09T05:32:13;2.90;;;0.70;;
62582;SDS011;48641;51.676;5.808;2022-09-09T05:34:40;2.97;;;0.75;;
62582;SDS011;48641;51.676;5.808;2022-09-09T05:37:06;2.85;;;0.80;;
62582;SDS011;48641;51.676;5.808;2022-09-09T05:39:32;2.65;;;0.63;;
62582;SDS011;48641;51.676;5.808;2022-09-09T05:41:58;2.75;;;0.80;;
62582;SDS011;48641;51.676;5.808;2022-09-09T05:44:24;4.32;;;0.68;;
62582;SDS011;48641;51.676;5.808;2022-09-09T05:46:52;1.07;;;0.50;;
62582;SDS011;48641;51.676;5.808;2022-09-09T05:49:19;2.38;;;0.70;;
62582;SDS011;48641;51.676;5.808;2022-09-09T05:51:44;1.65;;;0.57;;
62582;SDS011;48641;51.676;5.808;2022-09-09T05:54:10;2.50;;;0.70;;
62582;SDS011;48641;51.676;5.808;2022-09-09T05:56:36;2.83;;;0.98;;
62582;SDS011;48641;51.676;5.808;2022-09-09T05:59:02;4.40;;;0.70;;
62582;SDS011;48641;51.676;5.808;2022-09-09T06:01:29;1.73;;;0.60;;
62582;SDS011;48641;51.676;5.808;2022-09-09T06:03:56;3.10;;;0.90;;
62582;SDS011;48641;51.676;5.808;2022-09-09T06:06:23;3.08;;;0.90;;
62582;SDS011;48641;51.676;5.808;2022-09-09T06:08:51;6.45;;;0.98;;
62582;SDS011;48641;51.676;5.808;2022-09-09T06:11:39;3.70;;;0.90;;
62582;SDS011;48641;51.676;5.808;2022-09-09T06:14:05;3.35;;;0.85;;
62582;SDS011;48641;51.676;5.808;2022-09-09T06:16:31;3.35;;;0.90;;
62582;SDS011;48641;51.676;5.808;2022-09-09T06:18:58;3.03;;;0.85;;
62582;SDS011;48641;51.676;5.808;2022-09-09T06:21:28;2.40;;;0.85;;
62582;SDS011;48641;51.676;5.808;2022-09-09T06:23:55;4.18;;;0.90;;
62582;SDS011;48641;51.676;5.808;2022-09-09T06:26:29;4.13;;;1.15;;
62582;SDS011;48641;51.676;5.808;2022-09-09T06:28:56;3.55;;;0.90;;
62582;SDS011;48641;51.676;5.808;2022-09-09T06:31:24;2.55;;;0.82;;
62582;SDS011;48641;51.676;5.808;2022-09-09T06:33:55;3.85;;;1.20;;
62582;SDS011;48641;51.676;5.808;2022-09-09T06:36:23;3.03;;;0.80;;
62582;SDS011;48641;51.676;5.808;2022-09-09T06:38:50;2.92;;;1.27;;
62582;SDS011;48641;51.676;5.808;2022-09-09T06:41:16;5.13;;;1.08;;
62582;SDS011;48641;51.676;5.808;2022-09-09T06:43:45;6.10;;;1.00;;
62582;SDS011;48641;51.676;5.808;2022-09-09T06:46:12;3.70;;;0.98;;
62582;SDS011;48641;51.676;5.808;2022-09-09T06:48:46;3.78;;;1.00;;
62582;SDS011;48641;51.676;5.808;2022-09-09T06:51:16;4.40;;;1.00;;
62582;SDS011;48641;51.676;5.808;2022-09-09T06:53:44;3.90;;;1.00;;
62582;SDS011;48641;51.676;5.808;2022-09-09T06:58:39;4.97;;;0.90;;
62582;SDS011;48641;51.676;5.808;2022-09-09T07:01:08;2.67;;;0.90;;
62582;SDS011;48641;51.676;5.808;2022-09-09T07:03:35;3.65;;;1.10;;
62582;SDS011;48641;51.676;5.808;2022-09-09T07:06:01;5.55;;;1.10;;
62582;SDS011;48641;51.676;5.808;2022-09-09T07:08:32;6.38;;;1.20;;
62582;SDS011;48641;51.676;5.808;2022-09-09T07:11:05;3.97;;;1.20;;
62582;SDS011;48641;51.676;5.808;2022-09-09T07:13:32;3.17;;;1.02;;
62582;SDS011;48641;51.676;5.808;2022-09-09T07:16:09;3.10;;;1.00;;
62582;SDS011;48641;51.676;5.808;2022-09-09T07:18:36;3.80;;;1.17;;
62582;SDS011;48641;51.676;5.808;2022-09-09T07:21:02;2.95;;;1.05;;
62582;SDS011;48641;51.676;5.808;2022-09-09T07:23:28;4.95;;;1.17;;
62582;SDS011;48641;51.676;5.808;2022-09-09T07:25:55;3.92;;;0.85;;
62582;SDS011;48641;51.676;5.808;2022-09-09T07:28:22;4.35;;;1.20;;
62582;SDS011;48641;51.676;5.808;2022-09-09T07:30:55;3.30;;;1.10;;
62582;SDS011;48641;51.676;5.808;2022-09-09T07:33:21;2.63;;;0.90;;
62582;SDS011;48641;51.676;5.808;2022-09-09T07:35:47;3.40;;;1.02;;
62582;SDS011;48641;51.676;5.808;2022-09-09T07:38:14;3.45;;;1.00;;
62582;SDS011;48641;51.676;5.808;2022-09-09T07:40:40;4.72;;;1.27;;
62582;SDS011;48641;51.676;5.808;2022-09-09T07:43:06;5.15;;;1.23;;
62582;SDS011;48641;51.676;5.808;2022-09-09T07:45:33;4.35;;;1.25;;
62582;SDS011;48641;51.676;5.808;2022-09-09T07:47:59;5.45;;;1.20;;
62582;SDS011;48641;51.676;5.808;2022-09-09T07:50:29;4.72;;;0.95;;
62582;SDS011;48641;51.676;5.808;2022-09-09T07:52:55;5.38;;;1.00;;
62582;SDS011;48641;51.676;5.808;2022-09-09T07:55:21;4.40;;;1.10;;
62582;SDS011;48641;51.676;5.808;2022-09-09T07:57:50;5.55;;;1.25;;
62582;SDS011;48641;51.676;5.808;2022-09-09T08:00:15;2.95;;;1.00;;
62582;SDS011;48641;51.676;5.808;2022-09-09T08:02:41;5.22;;;1.20;;
62582;SDS011;48641;51.676;5.808;2022-09-09T08:05:07;5.40;;;1.50;;
62582;SDS011;48641;51.676;5.808;2022-09-09T08:07:33;3.00;;;0.90;;
62582;SDS011;48641;51.676;5.808;2022-09-09T08:09:59;4.80;;;1.10;;
62582;SDS011;48641;51.676;5.808;2022-09-09T08:12:24;3.70;;;0.93;;
62582;SDS011;48641;51.676;5.808;2022-09-09T08:14:50;5.45;;;1.20;;
62582;SDS011;48641;51.676;5.808;2022-09-09T08:17:16;5.05;;;1.00;;
62582;SDS011;48641;51.676;5.808;2022-09-09T08:19:42;3.13;;;1.00;;
62582;SDS011;48641;51.676;5.808;2022-09-09T08:22:09;3.38;;;1.00;;
62582;SDS011;48641;51.676;5.808;2022-09-09T08:24:35;5.68;;;1.13;;
62582;SDS011;48641;51.676;5.808;2022-09-09T08:27:01;3.45;;;1.00;;
62582;SDS011;48641;51.676;5.808;2022-09-09T08:29:26;4.07;;;0.77;;
62582;SDS011;48641;51.676;5.808;2022-09-09T08:31:54;4.03;;;0.93;;
62582;SDS011;48641;51.676;5.808;2022-09-09T08:34:22;2.20;;;0.90;;
62582;SDS011;48641;51.676;5.808;2022-09-09T08:36:51;3.63;;;1.08;;
62582;SDS011;48641;51.676;5.808;2022-09-09T08:39:18;4.30;;;1.05;;
62582;SDS011;48641;51.676;5.808;2022-09-09T08:52:54;2.17;;;0.82;;
62582;SDS011;48641;51.676;5.808;2022-09-09T08:57:51;4.43;;;1.00;;
62582;SDS011;48641;51.676;5.808;2022-09-09T09:00:19;4.10;;;0.88;;
62582;SDS011;48641;51.676;5.808;2022-09-09T09:02:53;4.50;;;0.95;;
62582;SDS011;48641;51.676;5.808;2022-09-09T09:05:26;5.35;;;1.25;;
62582;SDS011;48641;51.676;5.808;2022-09-09T09:10:34;2.92;;;0.73;;
62582;SDS011;48641;51.676;5.808;2022-09-09T09:13:19;4.18;;;1.08;;
62582;SDS011;48641;51.676;5.808;2022-09-09T09:16:00;8.00;;;1.15;;
62582;SDS011;48641;51.676;5.808;2022-09-09T09:18:36;6.03;;;1.20;;
62582;SDS011;48641;51.676;5.808;2022-09-09T09:21:08;5.07;;;1.00;;
62582;SDS011;48641;51.676;5.808;2022-09-09T09:23:49;5.93;;;1.35;;
62582;SDS011;48641;51.676;5.808;2022-09-09T09:26:23;6.05;;;1.30;;
62582;SDS011;48641;51.676;5.808;2022-09-09T09:28:55;4.15;;;1.25;;
62582;SDS011;48641;51.676;5.808;2022-09-09T09:31:22;6.13;;;1.17;;
62582;SDS011;48641;51.676;5.808;2022-09-09T09:33:52;4.70;;;1.10;;
62582;SDS011;48641;51.676;5.808;2022-09-09T09:36:40;4.70;;;1.10;;
62582;SDS011;48641;51.676;5.808;2022-09-09T09:39:04;4.47;;;1.10;;
62582;SDS011;48641;51.676;5.808;2022-09-09T09:43:56;3.47;;;1.33;;
62582;SDS011;48641;51.676;5.808;2022-09-09T09:46:22;2.38;;;0.88;;
62582;SDS011;48641;51.676;5.808;2022-09-09T09:51:30;6.13;;;0.90;;
62582;SDS011;48641;51.676;5.808;2022-09-09T09:54:33;5.30;;;1.05;;
62582;SDS011;48641;51.676;5.808;2022-09-09T09:57:09;5.47;;;1.20;;
62582;SDS011;48641;51.676;5.808;2022-09-09T09:59:41;3.88;;;1.08;;
62582;SDS011;48641;51.676;5.808;2022-09-09T10:02:21;5.45;;;1.20;;
62582;SDS011;48641;51.676;5.808;2022-09-09T10:05:00;4.82;;;1.45;;
62582;SDS011;48641;51.676;5.808;2022-09-09T10:07:28;3.43;;;1.13;;
62582;SDS011;48641;51.676;5.808;2022-09-09T10:09:55;4.65;;;1.10;;
62582;SDS011;48641;51.676;5.808;2022-09-09T10:36:39;4.05;;;1.23;;
62582;SDS011;48641;51.676;5.808;2022-09-09T10:39:55;4.53;;;1.42;;
62582;SDS011;48641;51.676;5.808;2022-09-09T10:42:05;4.88;;;1.35;;
62582;SDS011;48641;51.676;5.808;2022-09-09T10:49:50;4.43;;;1.25;;
62582;SDS011;48641;51.676;5.808;2022-09-09T10:52:40;5.45;;;1.30;;
62582;SDS011;48641;51.676;5.808;2022-09-09T10:55:24;5.50;;;1.50;;
62582;SDS011;48641;51.676;5.808;2022-09-09T10:57:53;4.10;;;1.00;;
62582;SDS011;48641;51.676;5.808;2022-09-09T11:06:00;4.95;;;1.25;;
62582;SDS011;48641;51.676;5.808;2022-09-09T11:08:31;4.65;;;1.08;;
62582;SDS011;48641;51.676;5.808;2022-09-09T11:21:48;2.88;;;0.93;;
62582;SDS011;48641;51.676;5.808;2022-09-09T11:24:19;3.50;;;0.98;;
62582;SDS011;48641;51.676;5.808;2022-09-09T11:26:57;6.90;;;1.10;;
62582;SDS011;48641;51.676;5.808;2022-09-09T11:35:17;3.75;;;1.17;;
62582;SDS011;48641;51.676;5.808;2022-09-09T11:38:09;2.50;;;0.95;;
62582;SDS011;48641;51.676;5.808;2022-09-09T11:40:46;4.45;;;1.05;;
62582;SDS011;48641;51.676;5.808;2022-09-09T11:43:28;4.18;;;1.08;;
62582;SDS011;48641;51.676;5.808;2022-09-09T11:45:58;4.85;;;1.13;;
62582;SDS011;48641;51.676;5.808;2022-09-09T11:53:34;2.22;;;0.80;;
62582;SDS011;48641;51.676;5.808;2022-09-09T11:56:12;3.13;;;1.00;;
62582;SDS011;48641;51.676;5.808;2022-09-09T11:58:55;4.82;;;1.00;;
62582;SDS011;48641;51.676;5.808;2022-09-09T12:06:44;3.63;;;1.10;;
62582;SDS011;48641;51.676;5.808;2022-09-09T12:12:30;5.57;;;1.10;;
62582;SDS011;48641;51.676;5.808;2022-09-09T12:17:20;6.53;;;1.00;;
62582;SDS011;48641;51.676;5.808;2022-09-09T12:19:59;7.07;;;1.15;;
62582;SDS011;48641;51.676;5.808;2022-09-09T12:22:47;2.40;;;0.73;;
62582;SDS011;48641;51.676;5.808;2022-09-09T12:25:37;2.88;;;0.80;;
62582;SDS011;48641;51.676;5.808;2022-09-09T12:28:20;5.00;;;1.20;;
62582;SDS011;48641;51.676;5.808;2022-09-09T12:33:42;4.07;;;0.90;;
62582;SDS011;48641;51.676;5.808;2022-09-09T12:36:29;2.00;;;0.80;;
62582;SDS011;48641;51.676;5.808;2022-09-09T12:38:58;3.80;;;0.80;;
62582;SDS011;48641;51.676;5.808;2022-09-09T12:41:35;3.83;;;1.05;;
62582;SDS011;48641;51.676;5.808;2022-09-09T12:44:08;3.42;;;0.90;;
62582;SDS011;48641;51.676;5.808;2022-09-09T12:46:39;1.88;;;0.70;;
62582;SDS011;48641;51.676;5.808;2022-09-09T12:51:51;3.72;;;0.95;;
62582;SDS011;48641;51.676;5.808;2022-09-09T12:54:17;3.63;;;0.80;;
62582;SDS011;48641;51.676;5.808;2022-09-09T12:56:45;4.75;;;1.02;;
62582;SDS011;48641;51.676;5.808;2022-09-09T12:59:26;2.60;;;0.88;;
62582;SDS011;48641;51.676;5.808;2022-09-09T13:02:00;3.28;;;0.85;;
62582;SDS011;48641;51.676;5.808;2022-09-09T13:04:26;2.92;;;0.80;;
62582;SDS011;48641;51.676;5.808;2022-09-09T13:06:51;3.28;;;0.90;;
62582;SDS011;48641;51.676;5.808;2022-09-09T13:09:20;2.85;;;0.85;;
62582;SDS011;48641;51.676;5.808;2022-09-09T13:11:50;1.90;;;0.70;;
62582;SDS011;48641;51.676;5.808;2022-09-09T13:14:31;2.80;;;0.88;;
62582;SDS011;48641;51.676;5.808;2022-09-09T13:17:03;3.55;;;1.08;;
62582;SDS011;48641;51.676;5.808;2022-09-09T13:19:32;3.25;;;1.45;;
62582;SDS011;48641;51.676;5.808;2022-09-09T13:22:20;2.03;;;0.60;;
62582;SDS011;48641;51.676;5.808;2022-09-09T13:27:40;2.50;;;0.70;;
62582;SDS011;48641;51.676;5.808;2022-09-09T13:30:20;2.47;;;0.80;;
62582;SDS011;48641;51.676;5.808;2022-09-09T13:32:59;4.95;;;1.00;;
62582;SDS011;48641;51.676;5.808;2022-09-09T13:35:26;2.72;;;0.80;;
62582;SDS011;48641;51.676;5.808;2022-09-09T13:37:52;1.83;;;0.80;;
62582;SDS011;48641;51.676;5.808;2022-09-09T13:40:19;4.53;;;0.90;;
62582;SDS011;48641;51.676;5.808;2022-09-09T13:42:52;3.67;;;0.82;;
62582;SDS011;48641;51.676;5.808;2022-09-09T13:45:21;6.28;;;1.25;;
62582;SDS011;48641;51.676;5.808;2022-09-09T13:47:51;10.52;;;1.48;;
62582;SDS011;48641;51.676;5.808;2022-09-09T13:52:46;7.78;;;1.35;;
62582;SDS011;48641;51.676;5.808;2022-09-09T13:55:12;8.65;;;1.20;;
62582;SDS011;48641;51.676;5.808;2022-09-09T13:57:38;5.78;;;1.00;;
62582;SDS011;48641;51.676;5.808;2022-09-09T14:00:03;6.03;;;1.20;;
62582;SDS011;48641;51.676;5.808;2022-09-09T14:02:31;5.15;;;1.05;;
62582;SDS011;48641;51.676;5.808;2022-09-09T14:04:58;4.50;;;1.10;;
62582;SDS011;48641;51.676;5.808;2022-09-09T14:07:24;5.38;;;1.30;;
62582;SDS011;48641;51.676;5.808;2022-09-09T14:09:50;8.23;;;1.20;;
62582;SDS011;48641;51.676;5.808;2022-09-09T14:12:16;5.82;;;1.17;;
62582;SDS011;48641;51.676;5.808;2022-09-09T14:14:43;2.65;;;0.98;;
62582;SDS011;48641;51.676;5.808;2022-09-09T14:17:09;5.30;;;0.95;;
62582;SDS011;48641;51.676;5.808;2022-09-09T14:19:34;2.78;;;0.90;;
62582;SDS011;48641;51.676;5.808;2022-09-09T14:22:02;4.63;;;1.17;;
62582;SDS011;48641;51.676;5.808;2022-09-09T14:24:28;6.30;;;1.48;;
62582;SDS011;48641;51.676;5.808;2022-09-09T14:26:54;2.97;;;0.95;;
62582;SDS011;48641;51.676;5.808;2022-09-09T14:29:20;4.13;;;0.98;;
62582;SDS011;48641;51.676;5.808;2022-09-09T14:31:45;5.53;;;1.20;;
62582;SDS011;48641;51.676;5.808;2022-09-09T14:34:11;8.63;;;2.10;;
62582;SDS011;48641;51.676;5.808;2022-09-09T14:36:37;9.10;;;1.40;;
62582;SDS011;48641;51.676;5.808;2022-09-09T14:39:03;5.30;;;1.20;;
62582;SDS011;48641;51.676;5.808;2022-09-09T14:41:29;5.68;;;1.10;;
62582;SDS011;48641;51.676;5.808;2022-09-09T14:43:55;4.38;;;1.05;;
62582;SDS011;48641;51.676;5.808;2022-09-09T14:46:21;3.45;;;1.02;;
62582;SDS011;48641;51.676;5.808;2022-09-09T14:48:47;3.20;;;1.02;;
62582;SDS011;48641;51.676;5.808;2022-09-09T14:51:19;4.18;;;1.13;;
62582;SDS011;48641;51.676;5.808;2022-09-09T14:53:53;4.55;;;1.10;;
62582;SDS011;48641;51.676;5.808;2022-09-09T14:56:22;4.35;;;1.10;;
62582;SDS011;48641;51.676;5.808;2022-09-09T15:01:18;2.58;;;1.02;;
62582;SDS011;48641;51.676;5.808;2022-09-09T15:04:18;4.60;;;1.02;;
62582;SDS011;48641;51.676;5.808;2022-09-09T15:06:37;4.07;;;1.02;;
62582;SDS011;48641;51.676;5.808;2022-09-09T15:09:04;3.78;;;1.08;;
62582;SDS011;48641;51.676;5.808;2022-09-09T15:11:31;5.32;;;1.10;;
62582;SDS011;48641;51.676;5.808;2022-09-09T15:14:02;4.13;;;1.15;;
62582;SDS011;48641;51.676;5.808;2022-09-09T15:16:29;3.55;;;1.10;;
62582;SDS011;48641;51.676;5.808;2022-09-09T15:18:56;4.97;;;1.13;;
62582;SDS011;48641;51.676;5.808;2022-09-09T15:21:23;4.75;;;1.20;;
62582;SDS011;48641;51.676;5.808;2022-09-09T15:23:50;4.70;;;0.98;;
62582;SDS011;48641;51.676;5.808;2022-09-09T15:26:16;4.25;;;1.10;;
62582;SDS011;48641;51.676;5.808;2022-09-09T15:28:43;4.25;;;1.15;;
62582;SDS011;48641;51.676;5.808;2022-09-09T15:31:17;3.58;;;1.10;;
62582;SDS011;48641;51.676;5.808;2022-09-09T15:33:51;3.22;;;1.08;;
62582;SDS011;48641;51.676;5.808;2022-09-09T15:36:26;4.20;;;0.90;;
62582;SDS011;48641;51.676;5.808;2022-09-09T15:38:59;2.95;;;0.88;;
62582;SDS011;48641;51.676;5.808;2022-09-09T15:41:26;2.28;;;0.73;;
62582;SDS011;48641;51.676;5.808;2022-09-09T15:43:53;3.63;;;0.90;;
62582;SDS011;48641;51.676;5.808;2022-09-09T15:46:31;6.25;;;1.05;;
62582;SDS011;48641;51.676;5.808;2022-09-09T15:49:08;3.53;;;0.90;;
62582;SDS011;48641;51.676;5.808;2022-09-09T15:51:39;2.63;;;0.80;;
62582;SDS011;48641;51.676;5.808;2022-09-09T15:54:07;2.72;;;1.00;;
62582;SDS011;48641;51.676;5.808;2022-09-09T15:56:33;3.00;;;0.90;;
62582;SDS011;48641;51.676;5.808;2022-09-09T15:58:59;3.50;;;0.95;;
62582;SDS011;48641;51.676;5.808;2022-09-09T16:01:27;3.30;;;1.17;;
62582;SDS011;48641;51.676;5.808;2022-09-09T16:03:52;3.22;;;1.00;;
62582;SDS011;48641;51.676;5.808;2022-09-09T16:06:19;3.30;;;1.00;;
62582;SDS011;48641;51.676;5.808;2022-09-09T16:08:46;4.75;;;1.08;;
62582;SDS011;48641;51.676;5.808;2022-09-09T16:11:19;1.98;;;0.80;;
62582;SDS011;48641;51.676;5.808;2022-09-09T16:13:47;3.60;;;1.05;;
62582;SDS011;48641;51.676;5.808;2022-09-09T16:16:14;4.60;;;0.90;;
62582;SDS011;48641;51.676;5.808;2022-09-09T16:18:45;2.85;;;1.00;;
62582;SDS011;48641;51.676;5.808;2022-09-09T16:21:16;3.03;;;0.93;;
62582;SDS011;48641;51.676;5.808;2022-09-09T16:23:44;5.03;;;0.90;;
62582;SDS011;48641;51.676;5.808;2022-09-09T16:26:13;1.80;;;0.80;;
62582;SDS011;48641;51.676;5.808;2022-09-09T16:28:40;1.75;;;0.90;;
62582;SDS011;48641;51.676;5.808;2022-09-09T16:31:07;1.88;;;0.70;;
62582;SDS011;48641;51.676;5.808;2022-09-09T16:33:35;3.22;;;0.90;;
62582;SDS011;48641;51.676;5.808;2022-09-09T16:36:08;3.20;;;0.90;;
62582;SDS011;48641;51.676;5.808;2022-09-09T16:38:35;2.78;;;0.80;;
62582;SDS011;48641;51.676;5.808;2022-09-09T16:41:02;3.53;;;0.85;;
62582;SDS011;48641;51.676;5.808;2022-09-09T16:43:30;2.55;;;0.80;;
62582;SDS011;48641;51.676;5.808;2022-09-09T16:45:57;4.63;;;1.00;;
62582;SDS011;48641;51.676;5.808;2022-09-09T16:48:25;1.60;;;0.70;;
62582;SDS011;48641;51.676;5.808;2022-09-09T16:50:52;2.55;;;0.85;;
62582;SDS011;48641;51.676;5.808;2022-09-09T16:53:17;3.42;;;0.80;;
62582;SDS011;48641;51.676;5.808;2022-09-09T16:55:43;4.10;;;1.00;;
62582;SDS011;48641;51.676;5.808;2022-09-09T16:58:12;2.10;;;0.60;;
62582;SDS011;48641;51.676;5.808;2022-09-09T17:00:38;2.15;;;0.80;;
62582;SDS011;48641;51.676;5.808;2022-09-09T17:03:03;3.35;;;0.70;;
62582;SDS011;48641;51.676;5.808;2022-09-09T17:05:29;2.05;;;0.80;;
62582;SDS011;48641;51.676;5.808;2022-09-09T17:07:55;2.10;;;0.90;;
62582;SDS011;48641;51.676;5.808;2022-09-09T17:12:50;1.08;;;0.73;;
62582;SDS011;48641;51.676;5.808;2022-09-09T17:15:16;3.17;;;0.70;;
62582;SDS011;48641;51.676;5.808;2022-09-09T17:17:43;3.33;;;0.70;;
62582;SDS011;48641;51.676;5.808;2022-09-09T17:20:10;2.75;;;0.70;;
62582;SDS011;48641;51.676;5.808;2022-09-09T17:22:35;2.22;;;0.93;;
62582;SDS011;48641;51.676;5.808;2022-09-09T17:25:01;3.20;;;0.70;;
62582;SDS011;48641;51.676;5.808;2022-09-09T17:27:28;1.70;;;0.70;;
62582;SDS011;48641;51.676;5.808;2022-09-09T17:29:56;2.87;;;0.80;;
62582;SDS011;48641;51.676;5.808;2022-09-09T17:32:22;2.45;;;0.65;;
62582;SDS011;48641;51.676;5.808;2022-09-09T17:34:48;2.10;;;0.70;;
62582;SDS011;48641;51.676;5.808;2022-09-09T17:37:13;1.60;;;0.70;;
62582;SDS011;48641;51.676;5.808;2022-09-09T17:39:39;0.80;;;0.60;;
62582;SDS011;48641;51.676;5.808;2022-09-09T17:42:04;2.10;;;0.80;;
62582;SDS011;48641;51.676;5.808;2022-09-09T17:44:32;3.15;;;0.77;;